Time;durP1;ratioP1;P1;durP2;ratioP2;P2;SDS_P1;SDS_P2;PMS_P1;PMS_P2;Temp;Humidity;BMP_temperature;BMP_pressure;BME280_temperature;BME280_humidity;BME280_pressure;Samples;Min_cycle;Max_cycle;Signal;HPM_P1;HPM_P2
2021/08/03 00:00:56;;;;;;;1.80;1.70;;;14.10;99.90;;;;;;5013855;28;20767;-63
2021/08/03 00:03:29;;;;;;;1.27;1.17;;;14.10;99.90;;;;;;5013598;28;20416;-64
2021/08/03 00:05:56;;;;;;;1.80;1.70;;;14.10;99.90;;;;;;5012918;28;20495;-63
2021/08/03 00:08:32;;;;;;;1.73;1.63;;;14.10;99.90;;;;;;5028485;28;20455;-63
2021/08/03 00:11:05;;;;;;;1.63;1.53;;;14.10;99.90;;;;;;5032132;28;20472;-63
2021/08/03 00:13:32;;;;;;;2.17;1.77;;;14.10;99.90;;;;;;5033419;28;20403;-64
2021/08/03 00:16:01;;;;;;;2.93;1.63;;;14.10;99.90;;;;;;5031875;28;20502;-63
2021/08/03 00:18:28;;;;;;;1.20;1.20;;;14.10;99.90;;;;;;5032787;28;20481;-63
2021/08/03 00:20:55;;;;;;;1.77;1.67;;;14.10;99.90;;;;;;5033221;28;20402;-63
2021/08/03 00:23:21;;;;;;;1.97;1.87;;;14.10;99.90;;;;;;5015368;28;20427;-63
2021/08/03 00:25:52;;;;;;;1.13;1.13;;;14.10;99.90;;;;;;5013588;28;20828;-63
2021/08/03 00:28:18;;;;;;;2.73;1.83;;;14.10;99.90;;;;;;5011589;28;20985;-64
2021/08/03 00:30:44;;;;;;;1.30;1.20;;;14.10;99.90;;;;;;5011899;28;20507;-64
2021/08/03 00:33:12;;;;;;;1.80;1.63;;;14.10;99.90;;;;;;5012038;28;20504;-63
2021/08/03 00:35:38;;;;;;;1.70;1.60;;;14.10;99.90;;;;;;5012118;28;20736;-64
2021/08/03 00:38:05;;;;;;;2.43;2.20;;;14.10;99.90;;;;;;5028573;28;20538;-63
2021/08/03 00:40:33;;;;;;;2.73;1.97;;;14.10;99.90;;;;;;5033121;28;20180;-62
2021/08/03 00:42:59;;;;;;;1.73;1.63;;;14.10;99.90;;;;;;5033280;28;20411;-63
2021/08/03 00:45:24;;;;;;;2.00;1.80;;;14.10;99.90;;;;;;5032877;28;20408;-62
2021/08/03 00:47:50;;;;;;;1.60;1.50;;;14.10;99.90;;;;;;5032389;28;20628;-63
2021/08/03 00:50:16;;;;;;;1.60;1.50;;;14.10;99.90;;;;;;5032825;28;20179;-63
2021/08/03 00:52:42;;;;;;;1.60;1.50;;;14.10;99.90;;;;;;5016058;28;20178;-62
2021/08/03 00:55:09;;;;;;;1.40;1.30;;;14.10;99.90;;;;;;5011750;28;20192;-64
2021/08/03 00:57:35;;;;;;;1.50;1.40;;;14.10;99.90;;;;;;5012670;28;20502;-64
2021/08/03 01:00:01;;;;;;;1.57;1.47;;;14.10;99.90;;;;;;5012865;28;20407;-63
2021/08/03 01:02:26;;;;;;;1.50;1.40;;;14.10;99.90;;;;;;5012912;28;20740;-62
2021/08/03 01:04:53;;;;;;;1.47;1.37;;;14.10;99.90;;;;;;5012972;28;20177;-62
2021/08/03 01:07:21;;;;;;;2.30;2.10;;;14.10;99.90;;;;;;5027632;28;20664;-63
2021/08/03 01:09:56;;;;;;;1.73;1.63;;;14.10;99.90;;;;;;5032657;28;20462;-63
2021/08/03 01:12:51;;;;;;;1.90;1.80;;;14.10;99.90;;;;;;5032711;28;20887;-63
2021/08/03 01:15:28;;;;;;;1.33;1.23;;;14.10;99.90;;;;;;5033043;28;20409;-63
2021/08/03 01:17:59;;;;;;;2.00;1.43;;;14.10;99.90;;;;;;5033794;28;20833;-63
2021/08/03 01:20:35;;;;;;;1.47;1.40;;;14.20;99.90;;;;;;5034191;28;20399;-63
2021/08/03 01:23:19;;;;;;;2.90;2.27;;;14.10;99.90;;;;;;5016568;28;20413;-63
2021/08/03 01:26:06;;;;;;;2.57;1.50;;;14.10;99.90;;;;;;5016557;28;20422;-63
2021/08/03 01:28:37;;;;;;;1.53;1.43;;;14.10;99.90;;;;;;5015711;28;20538;-64
2021/08/03 01:31:15;;;;;;;2.47;1.80;;;14.10;99.90;;;;;;5016071;28;20944;-63
2021/08/03 01:33:46;;;;;;;1.70;1.60;;;14.10;99.90;;;;;;5016177;28;20798;-63
2021/08/03 01:36:12;;;;;;;2.40;1.53;;;14.20;99.90;;;;;;5026262;28;20767;-63
2021/08/03 01:38:41;;;;;;;1.93;1.83;;;14.20;99.90;;;;;;5035310;28;20509;-63
2021/08/03 01:41:12;;;;;;;1.67;1.57;;;14.10;99.90;;;;;;5035908;28;20449;-62
2021/08/03 01:43:40;;;;;;;1.60;1.50;;;14.20;99.90;;;;;;5036179;28;20798;-63
2021/08/03 01:46:08;;;;;;;2.17;1.70;;;14.20;99.90;;;;;;5035841;28;20412;-62
2021/08/03 01:48:34;;;;;;;1.27;1.17;;;14.20;99.90;;;;;;5035139;28;20458;-63
2021/08/03 01:51:00;;;;;;;1.27;1.27;;;14.10;99.90;;;;;;5024552;28;20454;-63
2021/08/03 01:53:27;;;;;;;1.60;1.50;;;14.10;99.90;;;;;;5014732;28;20412;-63
2021/08/03 01:55:55;;;;;;;3.20;1.90;;;14.10;99.90;;;;;;5015739;28;20417;-63
2021/08/03 01:58:22;;;;;;;2.03;1.50;;;14.10;99.90;;;;;;5013949;28;20433;-62
2021/08/03 02:00:50;;;;;;;2.10;2.00;;;14.10;99.90;;;;;;5016599;28;20419;-62
2021/08/03 02:03:16;;;;;;;1.57;1.47;;;14.20;99.90;;;;;;5015669;28;20723;-63
2021/08/03 02:05:43;;;;;;;1.77;1.40;;;14.10;99.90;;;;;;5015627;28;20520;-62
2021/08/03 02:08:10;;;;;;;3.13;1.30;;;14.10;99.90;;;;;;5014897;28;20454;-63
2021/08/03 02:10:38;;;;;;;3.03;2.13;;;14.10;99.90;;;;;;5016036;28;20416;-63
2021/08/03 02:13:06;;;;;;;1.83;1.73;;;14.10;99.90;;;;;;5018082;28;20419;-62
2021/08/03 02:15:32;;;;;;;2.13;1.90;;;14.10;99.90;;;;;;5015398;28;20414;-61
2021/08/03 02:17:58;;;;;;;1.33;1.23;;;14.00;99.90;;;;;;5014741;28;20425;-62
2021/08/03 02:20:25;;;;;;;1.47;1.40;;;14.00;99.90;;;;;;5015506;28;20421;-62
2021/08/03 02:22:50;;;;;;;1.40;1.30;;;13.90;99.90;;;;;;5015331;28;20483;-62
2021/08/03 02:25:17;;;;;;;1.83;1.47;;;13.80;99.90;;;;;;5015526;28;20494;-62
2021/08/03 02:27:44;;;;;;;1.33;1.33;;;13.80;99.90;;;;;;5014935;28;20906;-61
2021/08/03 02:30:11;;;;;;;1.83;1.30;;;13.80;99.90;;;;;;5014368;28;20822;-62
2021/08/03 02:32:44;;;;;;;1.33;1.23;;;13.70;99.90;;;;;;5015192;28;20810;-61
2021/08/03 02:35:14;;;;;;;5.03;1.87;;;13.70;99.90;;;;;;5015118;28;20778;-62
2021/08/03 02:37:43;;;;;;;2.23;1.70;;;13.60;99.90;;;;;;5014590;28;20847;-62
2021/08/03 02:40:10;;;;;;;2.00;1.40;;;13.60;99.90;;;;;;5014904;28;20412;-61
2021/08/03 02:42:38;;;;;;;1.50;1.40;;;13.60;99.90;;;;;;5023409;28;20423;-61
2021/08/03 02:45:06;;;;;;;6.23;2.07;;;13.50;99.90;;;;;;5034638;28;20408;-62
2021/08/03 02:47:47;;;;;;;1.60;1.50;;;13.50;99.90;;;;;;5034247;28;20418;-62
2021/08/03 02:50:14;;;;;;;2.73;2.43;;;13.50;99.90;;;;;;5034289;28;20466;-62
2021/08/03 02:52:44;;;;;;;1.60;1.50;;;13.50;99.90;;;;;;5034441;28;20435;-61
2021/08/03 02:55:16;;;;;;;2.00;1.67;;;13.50;99.90;;;;;;5034578;28;20402;-62
2021/08/03 02:57:45;;;;;;;3.83;2.07;;;13.50;99.90;;;;;;5022345;28;20516;-62
2021/08/03 03:00:13;;;;;;;1.60;1.50;;;13.60;99.90;;;;;;5014625;28;20436;-62
2021/08/03 03:02:43;;;;;;;1.57;1.47;;;13.60;99.90;;;;;;5014409;28;20442;-62
2021/08/03 03:05:18;;;;;;;2.50;1.63;;;13.70;99.90;;;;;;5014352;28;20443;-62
2021/08/03 03:07:51;;;;;;;1.73;1.40;;;13.80;99.90;;;;;;5014224;28;20383;-62
2021/08/03 03:10:22;;;;;;;6.30;1.90;;;13.80;99.90;;;;;;5014271;28;20426;-61
2021/08/03 03:12:54;;;;;;;2.23;2.13;;;13.80;99.90;;;;;;5027105;28;20508;-62
2021/08/03 03:15:20;;;;;;;1.70;1.63;;;13.80;99.90;;;;;;5034640;28;20482;-62
2021/08/03 03:17:46;;;;;;;2.13;1.93;;;13.80;99.90;;;;;;5033593;28;20408;-62
2021/08/03 03:20:15;;;;;;;2.00;1.77;;;13.80;99.90;;;;;;5034017;28;20495;-61
2021/08/03 03:22:43;;;;;;;1.47;1.30;;;13.80;99.90;;;;;;5034048;28;20388;-61
2021/08/03 03:25:12;;;;;;;1.50;1.40;;;13.70;99.90;;;;;;5034049;28;20431;-62
2021/08/03 03:27:39;;;;;;;1.87;1.77;;;13.70;99.90;;;;;;5018127;28;20433;-62
2021/08/03 03:30:05;;;;;;;1.27;1.17;;;13.60;99.90;;;;;;5013843;28;20459;-62
2021/08/03 03:32:32;;;;;;;1.73;1.63;;;13.70;99.90;;;;;;5014529;28;20419;-61
2021/08/03 03:35:00;;;;;;;1.57;1.47;;;13.60;99.90;;;;;;5014079;28;20370;-62
2021/08/03 03:37:31;;;;;;;4.10;1.63;;;13.60;99.90;;;;;;5024911;28;20433;-62
2021/08/03 03:39:57;;;;;;;1.73;1.63;;;13.60;99.90;;;;;;5033681;28;20431;-62
2021/08/03 03:42:30;;;;;;;1.33;1.30;;;13.60;99.90;;;;;;5032680;28;20788;-62
2021/08/03 03:44:56;;;;;;;4.17;1.77;;;13.60;99.90;;;;;;5033781;28;20404;-62
2021/08/03 03:47:29;;;;;;;1.63;1.53;;;13.60;99.90;;;;;;5033179;28;20430;-61
2021/08/03 03:50:05;;;;;;;1.70;1.60;;;13.50;99.90;;;;;;5033474;28;20500;-62
2021/08/03 03:52:39;;;;;;;1.70;1.60;;;13.50;99.90;;;;;;5019039;28;20469;-62
2021/08/03 03:55:06;;;;;;;2.07;1.97;;;13.60;99.90;;;;;;5013931;28;20469;-62
2021/08/03 03:57:32;;;;;;;2.10;2.00;;;13.50;99.90;;;;;;5012011;28;20948;-62
2021/08/03 03:59:59;;;;;;;2.37;1.70;;;13.50;99.90;;;;;;5013542;28;20522;-61
2021/08/03 04:02:28;;;;;;;1.80;1.70;;;13.50;99.90;;;;;;5012475;28;20482;-63
2021/08/03 04:04:57;;;;;;;1.77;1.67;;;13.50;99.90;;;;;;5013496;28;20400;-62
2021/08/03 04:07:23;;;;;;;2.67;1.63;;;13.40;99.90;;;;;;5028135;28;20426;-61
2021/08/03 04:09:48;;;;;;;2.57;2.17;;;13.40;99.90;;;;;;5031759;28;20548;-61
2021/08/03 04:12:14;;;;;;;2.07;1.97;;;13.40;99.90;;;;;;5033272;28;20200;-62
2021/08/03 04:14:43;;;;;;;1.90;1.80;;;13.30;99.90;;;;;;5031978;28;20768;-61
2021/08/03 04:17:09;;;;;;;2.40;2.20;;;13.40;99.90;;;;;;5032896;28;20637;-62
2021/08/03 04:19:35;;;;;;;2.83;2.20;;;13.40;99.90;;;;;;5033176;28;20222;-62
2021/08/03 04:22:00;;;;;;;2.03;1.83;;;13.50;99.90;;;;;;5018670;28;20425;-61
2021/08/03 04:24:26;;;;;;;2.10;1.77;;;13.40;99.90;;;;;;5013737;28;20407;-61
2021/08/03 04:26:52;;;;;;;1.80;1.70;;;13.40;99.90;;;;;;5013081;28;20627;-62
2021/08/03 04:29:17;;;;;;;2.57;2.13;;;13.50;99.90;;;;;;5012014;28;20244;-61
2021/08/03 04:31:43;;;;;;;2.10;2.00;;;13.50;99.90;;;;;;5013044;28;20658;-62
2021/08/03 04:34:09;;;;;;;1.67;1.57;;;13.60;99.90;;;;;;5013348;28;20185;-62
2021/08/03 04:36:35;;;;;;;2.60;2.40;;;13.60;99.90;;;;;;5023966;28;20449;-64
2021/08/03 04:39:01;;;;;;;2.03;1.90;;;13.60;99.90;;;;;;5032730;28;20215;-61
2021/08/03 04:41:26;;;;;;;2.53;1.90;;;13.60;99.90;;;;;;5033002;28;20406;-61
2021/08/03 04:43:52;;;;;;;2.03;1.93;;;13.70;99.90;;;;;;5033000;28;20230;-61
2021/08/03 04:46:17;;;;;;;4.40;2.23;;;13.70;99.90;;;;;;5032871;28;20181;-61
2021/08/03 04:48:43;;;;;;;1.60;1.53;;;13.70;99.90;;;;;;5032314;28;20197;-61
2021/08/03 04:51:09;;;;;;;2.10;2.00;;;13.70;99.90;;;;;;5020086;28;20208;-63
2021/08/03 04:53:34;;;;;;;2.00;1.67;;;13.70;99.90;;;;;;5015992;28;20182;-61
2021/08/03 04:56:00;;;;;;;1.83;1.67;;;13.70;99.90;;;;;;5016797;28;20177;-63
2021/08/03 04:58:26;;;;;;;1.97;1.77;;;13.70;99.90;;;;;;5016481;28;20192;-61
2021/08/03 05:00:52;;;;;;;3.90;2.10;;;13.70;99.90;;;;;;5016816;28;20894;-61
2021/08/03 05:03:18;;;;;;;1.93;1.83;;;13.70;99.90;;;;;;5016782;28;20208;-62
2021/08/03 05:05:44;;;;;;;1.83;1.73;;;13.70;99.90;;;;;;5026282;28;20419;-63
2021/08/03 05:08:10;;;;;;;2.00;1.80;;;13.80;99.90;;;;;;5035938;28;20430;-61
2021/08/03 05:10:36;;;;;;;1.77;1.63;;;13.80;99.90;;;;;;5036677;28;20169;-63
2021/08/03 05:13:02;;;;;;;1.70;1.60;;;14.00;99.90;;;;;;5036505;28;20173;-63
2021/08/03 05:15:28;;;;;;;1.73;1.43;;;14.00;99.90;;;;;;5036470;28;20377;-63
2021/08/03 05:17:54;;;;;;;2.40;2.20;;;14.10;99.90;;;;;;5035841;28;20408;-63
2021/08/03 05:20:19;;;;;;;1.57;1.37;;;14.20;99.90;;;;;;5027485;28;20417;-62
2021/08/03 05:22:46;;;;;;;2.10;1.23;;;14.30;99.90;;;;;;5016488;28;20216;-61
2021/08/03 05:25:12;;;;;;;1.40;1.30;;;14.40;99.90;;;;;;5016441;28;20231;-61
2021/08/03 05:27:39;;;;;;;1.80;1.70;;;14.50;99.90;;;;;;5015826;28;20775;-61
2021/08/03 05:30:05;;;;;;;2.07;1.87;;;14.60;99.90;;;;;;5016289;28;20474;-64
2021/08/03 05:32:31;;;;;;;1.83;1.73;;;14.70;99.90;;;;;;5016349;28;20406;-63
2021/08/03 05:34:57;;;;;;;1.33;1.33;;;14.80;99.90;;;;;;5023156;28;20415;-64
2021/08/03 05:37:22;;;;;;;2.13;1.60;;;14.80;99.90;;;;;;5033630;28;20223;-65
2021/08/03 05:39:48;;;;;;;1.67;1.57;;;14.80;99.90;;;;;;5035847;28;20204;-66
2021/08/03 05:42:14;;;;;;;1.47;1.37;;;14.80;99.90;;;;;;5035938;28;20177;-67
2021/08/03 05:44:39;;;;;;;2.77;1.87;;;14.80;99.90;;;;;;5035686;28;20260;-65
2021/08/03 05:47:05;;;;;;;1.90;1.80;;;14.90;99.90;;;;;;5035444;28;20640;-66
2021/08/03 05:49:31;;;;;;;7.17;2.53;;;14.80;99.90;;;;;;5033858;28;20208;-65
2021/08/03 05:51:56;;;;;;;1.43;1.43;;;14.90;99.90;;;;;;5035572;28;20168;-68
2021/08/03 05:54:23;;;;;;;1.77;1.60;;;14.90;99.90;;;;;;5035415;28;20560;-62
2021/08/03 05:56:48;;;;;;;1.00;1.00;;;14.90;99.90;;;;;;5034241;28;20247;-64
2021/08/03 05:59:14;;;;;;;4.93;2.17;;;14.90;99.90;;;;;;5015480;28;20433;-63
2021/08/03 06:01:40;;;;;;;1.77;1.67;;;14.90;99.90;;;;;;5015679;28;20213;-65
2021/08/03 06:04:06;;;;;;;2.87;1.83;;;14.90;99.90;;;;;;5014150;28;20178;-63
2021/08/03 06:06:38;;;;;;;2.23;1.90;;;15.00;99.90;;;;;;5015137;28;20229;-63
2021/08/03 06:09:09;;;;;;;5.57;1.50;;;15.00;99.90;;;;;;5015259;28;20195;-63
2021/08/03 06:11:36;;;;;;;1.80;1.70;;;15.00;99.90;;;;;;5015880;28;20409;-64
2021/08/03 06:14:07;;;;;;;1.67;1.57;;;15.10;99.90;;;;;;5034895;28;20379;-64
2021/08/03 06:16:35;;;;;;;2.10;2.00;;;15.20;99.90;;;;;;5030256;28;20769;-64
2021/08/03 06:19:03;;;;;;;1.53;1.43;;;15.30;99.90;;;;;;5015231;28;20452;-64
2021/08/03 06:21:30;;;;;;;1.80;1.70;;;15.40;99.90;;;;;;5015339;28;20884;-64
2021/08/03 06:23:56;;;;;;;1.23;1.13;;;15.60;99.90;;;;;;5015249;28;20917;-63
2021/08/03 06:26:23;;;;;;;1.03;1.00;;;15.80;99.90;;;;;;5015156;28;20406;-66
2021/08/03 06:28:50;;;;;;;1.37;1.27;;;16.00;99.90;;;;;;5014314;28;20964;-64
2021/08/03 06:31:17;;;;;;;1.40;1.30;;;16.20;99.90;;;;;;5014809;28;20448;-64
2021/08/03 06:33:46;;;;;;;1.63;1.53;;;16.40;99.90;;;;;;5015254;28;20402;-64
2021/08/03 06:36:12;;;;;;;1.57;1.47;;;16.50;99.90;;;;;;5014928;28;20454;-63
2021/08/03 06:38:38;;;;;;;1.93;1.70;;;16.60;99.90;;;;;;5014306;28;20462;-64
2021/08/03 06:41:30;;;;;;;2.03;1.50;;;16.80;99.90;;;;;;5014646;28;20407;-64
2021/08/03 06:44:05;;;;;;;1.20;1.20;;;16.90;99.90;;;;;;5015046;28;20187;-64
2021/08/03 06:46:34;;;;;;;1.63;1.53;;;17.00;99.90;;;;;;5014706;28;20948;-64
2021/08/03 06:49:01;;;;;;;1.10;1.10;;;17.10;99.90;;;;;;5026163;28;20557;-64
2021/08/03 06:51:33;;;;;;;1.30;1.20;;;17.30;99.90;;;;;;5014493;28;20488;-63
2021/08/03 06:54:03;;;;;;;1.33;1.23;;;17.60;99.90;;;;;;5014293;28;20379;-63
2021/08/03 06:56:33;;;;;;;1.50;1.00;;;17.80;99.90;;;;;;5012951;28;20417;-70
2021/08/03 06:59:11;;;;;;;1.20;1.13;;;18.00;99.90;;;;;;5014154;28;20436;-64
2021/08/03 07:01:48;;;;;;;1.10;1.00;;;18.30;99.90;;;;;;5013137;28;20939;-66
2021/08/03 07:04:39;;;;;;;1.40;1.30;;;18.50;99.90;;;;;;4994932;28;20520;-66
2021/08/03 07:07:05;;;;;;;1.20;1.10;;;18.80;99.90;;;;;;4993689;28;20481;-63
2021/08/03 07:09:31;;;;;;;1.40;1.30;;;19.00;99.90;;;;;;4994368;28;20833;-63
2021/08/03 07:11:57;;;;;;;1.33;1.00;;;19.20;99.90;;;;;;4994741;28;20183;-64
2021/08/03 07:14:26;;;;;;;1.43;1.00;;;19.30;99.90;;;;;;4994336;28;20411;-63
2021/08/03 07:16:53;;;;;;;1.03;1.00;;;19.30;99.90;;;;;;5001966;28;20174;-64
2021/08/03 07:19:24;;;;;;;2.30;1.37;;;19.20;99.90;;;;;;5033364;28;20428;-63
2021/08/03 07:21:50;;;;;;;1.17;1.07;;;19.10;99.90;;;;;;5032146;28;20419;-64
2021/08/03 07:24:17;;;;;;;1.60;1.20;;;19.10;99.90;;;;;;5032257;28;20901;-64
2021/08/03 07:26:43;;;;;;;1.97;1.30;;;19.00;99.90;;;;;;5032605;28;20409;-64
2021/08/03 07:29:09;;;;;;;8.00;1.57;;;19.00;99.90;;;;;;5032552;28;21005;-64
2021/08/03 07:31:36;;;;;;;5.27;1.70;;;19.20;99.90;;;;;;5028530;28;20440;-65
2021/08/03 07:34:04;;;;;;;1.90;1.30;;;19.50;99.90;;;;;;5013541;28;20167;-65
2021/08/03 07:36:30;;;;;;;0.77;0.77;;;19.80;99.90;;;;;;5014566;28;20421;-71
2021/08/03 07:38:58;;;;;;;2.67;0.97;;;20.00;99.90;;;;;;5013477;28;20432;-65
2021/08/03 07:41:26;;;;;;;1.30;1.20;;;20.20;99.90;;;;;;5012550;28;20179;-65
2021/08/03 07:43:53;;;;;;;1.43;1.33;;;20.70;99.90;;;;;;5013997;28;20443;-64
2021/08/03 07:46:19;;;;;;;1.03;1.03;;;21.10;99.90;;;;;;5013767;28;20399;-64
2021/08/03 07:48:50;;;;;;;2.70;1.33;;;21.50;99.90;;;;;;5013362;28;20437;-64
2021/08/03 07:51:17;;;;;;;1.00;1.00;;;21.70;99.90;;;;;;5016780;28;20261;-64
2021/08/03 07:53:43;;;;;;;1.60;1.20;;;21.80;99.90;;;;;;5032174;28;20402;-64
2021/08/03 07:56:10;;;;;;;1.80;1.23;;;21.90;99.90;;;;;;5033546;28;20901;-65
2021/08/03 07:58:35;;;;;;;1.13;1.03;;;21.80;99.90;;;;;;5032974;28;20401;-64
2021/08/03 08:01:04;;;;;;;1.37;1.33;;;21.80;99.90;;;;;;5033286;28;20876;-64
2021/08/03 08:03:32;;;;;;;1.93;1.17;;;21.90;99.90;;;;;;5032201;28;20175;-63
2021/08/03 08:05:59;;;;;;;0.80;0.80;;;21.90;99.90;;;;;;5030343;28;20618;-65
2021/08/03 08:08:24;;;;;;;1.00;1.00;;;21.90;99.90;;;;;;5013011;28;20816;-64
2021/08/03 08:10:50;;;;;;;1.03;0.90;;;22.00;99.90;;;;;;5013253;28;20412;-63
2021/08/03 08:13:16;;;;;;;1.10;1.00;;;22.10;99.90;;;;;;5012067;28;20179;-64
2021/08/03 08:15:41;;;;;;;0.80;0.80;;;22.20;99.90;;;;;;5013464;28;20197;-63
2021/08/03 08:18:08;;;;;;;5.40;3.43;;;22.40;99.90;;;;;;5012882;28;20225;-63
2021/08/03 08:20:35;;;;;;;6.00;1.80;;;22.50;99.90;;;;;;5014771;28;20253;-63
2021/08/03 08:23:00;;;;;;;1.60;1.10;;;22.50;99.90;;;;;;5031664;28;20421;-64
2021/08/03 08:25:27;;;;;;;1.30;1.20;;;22.20;99.90;;;;;;5033178;28;20807;-63
2021/08/03 08:27:52;;;;;;;1.00;1.00;;;22.10;99.90;;;;;;5018858;28;20184;-64
2021/08/03 08:30:19;;;;;;;2.97;1.20;;;22.10;99.90;;;;;;5017067;28;20971;-63
2021/08/03 08:32:45;;;;;;;7.93;1.40;;;22.20;99.90;;;;;;5016045;28;20185;-64
2021/08/03 08:35:11;;;;;;;0.70;0.70;;;22.30;99.90;;;;;;5017266;28;20420;-64
2021/08/03 08:37:37;;;;;;;1.30;1.20;;;22.30;99.90;;;;;;5016689;28;20763;-65
2021/08/03 08:40:07;;;;;;;1.27;1.17;;;22.30;99.90;;;;;;5016882;28;20392;-63
2021/08/03 08:42:34;;;;;;;3.80;1.50;;;22.30;99.90;;;;;;5031715;28;20579;-63
2021/08/03 08:45:01;;;;;;;4.00;1.80;;;22.20;99.90;;;;;;5036537;28;20386;-63
2021/08/03 08:47:27;;;;;;;3.43;1.53;;;22.10;99.90;;;;;;5035192;28;20440;-63
2021/08/03 08:49:53;;;;;;;0.90;0.90;;;22.10;99.90;;;;;;5036657;28;20420;-64
2021/08/03 08:52:19;;;;;;;1.30;1.20;;;22.00;99.90;;;;;;5036850;28;20900;-63
2021/08/03 08:54:45;;;;;;;1.20;1.20;;;22.10;99.90;;;;;;5036653;28;20371;-64
2021/08/03 08:57:11;;;;;;;1.63;1.17;;;22.00;99.90;;;;;;5022382;28;20226;-62
2021/08/03 08:59:36;;;;;;;1.27;1.00;;;22.00;99.90;;;;;;5016766;28;20189;-64
2021/08/03 09:02:03;;;;;;;1.20;1.10;;;22.10;99.90;;;;;;5016800;28;20915;-63
2021/08/03 09:04:29;;;;;;;1.67;0.93;;;22.10;99.90;;;;;;5015539;28;20202;-64
2021/08/03 09:07:06;;;;;;;1.30;1.20;;;22.20;99.90;;;;;;5016412;28;20485;-63
2021/08/03 09:09:43;;;;;;;1.50;1.40;;;22.40;99.90;;;;;;5016612;28;20209;-64
2021/08/03 09:12:10;;;;;;;2.10;1.00;;;22.50;99.90;;;;;;5030602;28;20417;-63
2021/08/03 09:14:39;;;;;;;1.73;1.10;;;22.60;99.90;;;;;;5036462;28;20730;-64
2021/08/03 09:17:05;;;;;;;1.07;1.07;;;22.70;99.90;;;;;;5035979;28;20403;-63
2021/08/03 09:19:37;;;;;;;11.00;1.87;;;22.90;99.90;;;;;;5035924;28;20478;-64
2021/08/03 09:22:29;;;;;;;5.73;2.90;;;23.00;99.90;;;;;;5036254;28;20466;-63
2021/08/03 09:25:15;;;;;;;2.03;1.80;;;23.20;99.90;;;;;;5034216;28;20467;-65
2021/08/03 09:27:47;;;;;;;1.00;1.00;;;23.30;99.90;;;;;;4996298;28;20412;-65
2021/08/03 09:30:19;;;;;;;2.13;1.50;;;23.50;99.90;;;;;;4996679;28;20440;-62
2021/08/03 09:32:47;;;;;;;1.30;1.23;;;23.80;99.90;;;;;;4996615;28;20413;-63
2021/08/03 09:35:18;;;;;;;1.83;1.73;;;24.00;99.90;;;;;;4996681;28;20840;-65
2021/08/03 09:37:44;;;;;;;1.60;1.50;;;23.90;99.90;;;;;;4996238;28;20407;-62
2021/08/03 09:40:34;;;;;;;2.30;2.10;;;23.90;99.90;;;;;;5002964;28;20403;-62
2021/08/03 09:43:07;;;;;;;2.47;1.43;;;23.80;99.90;;;;;;5035992;28;20383;-66
2021/08/03 09:45:53;;;;;;;1.17;1.07;;;23.50;99.90;;;;;;5035867;28;20470;-62
2021/08/03 09:48:20;;;;;;;6.23;1.53;;;22.80;99.90;;;;;;5035047;28;20411;-64
2021/08/03 09:50:55;;;;;;;2.10;1.23;;;22.00;99.90;;;;;;5035541;28;20386;-62
2021/08/03 09:53:42;;;;;;;1.10;1.00;;;21.10;99.90;;;;;;5035741;28;20413;-62
2021/08/03 09:56:10;;;;;;;2.23;1.10;;;20.00;99.90;;;;;;5022332;28;20471;-64
2021/08/03 09:58:54;;;;;;;1.03;1.03;;;19.10;99.90;;;;;;5015453;28;20415;-65
2021/08/03 10:01:32;;;;;;;0.90;0.90;;;18.30;99.90;;;;;;5015561;28;20410;-63
2021/08/03 10:04:07;;;;;;;3.33;1.30;;;17.90;99.90;;;;;;5015656;28;20971;-63
2021/08/03 10:06:34;;;;;;;1.00;0.90;;;17.70;99.90;;;;;;5014590;28;20747;-64
2021/08/03 10:09:01;;;;;;;0.60;0.60;;;17.60;99.90;;;;;;5015431;28;20455;-63
2021/08/03 10:11:27;;;;;;;0.90;0.90;;;17.60;99.90;;;;;;5032623;28;20573;-65
2021/08/03 10:13:54;;;;;;;1.40;1.30;;;17.50;99.90;;;;;;5035201;28;20403;-63
2021/08/03 10:16:21;;;;;;;1.13;1.03;;;17.50;99.90;;;;;;5035179;28;20379;-65
2021/08/03 10:18:49;;;;;;;1.10;1.00;;;17.50;99.90;;;;;;5034672;28;20437;-64
2021/08/03 10:21:33;;;;;;;1.00;1.00;;;17.60;99.90;;;;;;5032750;28;20423;-65
2021/08/03 10:24:30;;;;;;;1.30;1.13;;;17.70;99.90;;;;;;5014158;28;20786;-63
2021/08/03 10:27:13;;;;;;;0.80;0.80;;;17.80;99.90;;;;;;5014683;28;20433;-64
2021/08/03 10:29:46;;;;;;;1.10;1.07;;;17.90;99.90;;;;;;5015104;28;20460;-66
2021/08/03 10:32:47;;;;;;;1.33;1.23;;;17.90;99.90;;;;;;5015207;28;20398;-65
2021/08/03 10:35:15;;;;;;;1.00;1.00;;;18.10;99.90;;;;;;5015192;28;20800;-63
2021/08/03 10:37:59;;;;;;;2.33;1.53;;;18.00;99.90;;;;;;5030117;28;20390;-64
2021/08/03 10:40:43;;;;;;;1.20;1.10;;;18.10;99.90;;;;;;5034989;28;20899;-63
2021/08/03 10:43:20;;;;;;;1.50;1.40;;;18.30;99.90;;;;;;5034592;28;20888;-66
2021/08/03 10:45:46;;;;;;;2.30;2.10;;;18.40;99.90;;;;;;5034561;28;20826;-66
2021/08/03 10:48:37;;;;;;;2.70;1.60;;;18.40;99.90;;;;;;5034115;28;20422;-65
2021/08/03 10:51:15;;;;;;;1.80;1.70;;;18.40;99.90;;;;;;5029275;28;20436;-65
2021/08/03 10:54:00;;;;;;;1.60;1.50;;;18.40;99.90;;;;;;5014658;28;20433;-63
2021/08/03 10:56:27;;;;;;;1.63;1.53;;;18.50;99.90;;;;;;5014848;28;20406;-65
2021/08/03 10:59:47;;;;;;;1.07;1.07;;;18.60;99.90;;;;;;5012896;28;20434;-63
2021/08/03 11:02:24;;;;;;;1.20;1.10;;;18.70;99.90;;;;;;5015467;28;20509;-63
2021/08/03 11:04:53;;;;;;;1.00;1.00;;;19.00;99.90;;;;;;5013327;28;20536;-65
2021/08/03 11:07:25;;;;;;;0.90;0.90;;;19.30;99.90;;;;;;5030644;28;20507;-64
2021/08/03 11:09:52;;;;;;;1.23;1.17;;;19.50;99.90;;;;;;5033947;28;20456;-64
2021/08/03 11:12:40;;;;;;;1.30;1.20;;;19.50;99.90;;;;;;5033778;28;20420;-63
2021/08/03 11:15:21;;;;;;;0.73;0.73;;;19.40;99.90;;;;;;5033661;28;20466;-63
2021/08/03 11:17:58;;;;;;;1.23;1.13;;;19.50;99.90;;;;;;5033555;28;20484;-65
2021/08/03 11:20:41;;;;;;;1.30;1.20;;;19.60;99.90;;;;;;5030562;28;20424;-63
2021/08/03 11:23:09;;;;;;;1.07;1.03;;;19.90;99.90;;;;;;5014284;28;20496;-65
2021/08/03 11:25:36;;;;;;;0.90;0.90;;;20.30;99.90;;;;;;5014056;28;20419;-64
2021/08/03 11:28:28;;;;;;;1.50;1.40;;;20.70;99.90;;;;;;5013552;28;20818;-65
2021/08/03 11:30:53;;;;;;;2.00;1.07;;;20.70;99.90;;;;;;5014523;28;20440;-63
2021/08/03 11:33:21;;;;;;;0.80;0.80;;;20.80;99.90;;;;;;5013986;28;20373;-63
2021/08/03 11:35:47;;;;;;;1.60;0.83;;;20.80;99.90;;;;;;5021946;28;20237;-64
2021/08/03 11:38:15;;;;;;;1.10;1.10;;;20.60;99.90;;;;;;5033312;28;20871;-65
2021/08/03 11:40:42;;;;;;;1.40;1.10;;;20.50;99.90;;;;;;5033720;28;20375;-64
2021/08/03 11:43:08;;;;;;;1.13;1.13;;;20.60;99.90;;;;;;5015870;28;20414;-63
2021/08/03 11:45:36;;;;;;;1.07;0.70;;;20.70;99.90;;;;;;5014185;28;20755;-64
2021/08/03 11:48:05;;;;;;;0.70;0.70;;;20.80;99.90;;;;;;5013364;28;20414;-66
2021/08/03 11:50:32;;;;;;;1.23;1.10;;;20.90;99.90;;;;;;5013693;28;20485;-63
2021/08/03 11:53:11;;;;;;;2.73;1.60;;;20.90;99.90;;;;;;5013737;28;20406;-64
2021/08/03 11:55:48;;;;;;;1.10;1.00;;;20.90;99.90;;;;;;5013475;28;20408;-64
2021/08/03 11:58:22;;;;;;;1.70;1.60;;;21.00;99.90;;;;;;4992162;28;20462;-64
2021/08/03 12:00:55;;;;;;;0.93;0.93;;;21.00;99.90;;;;;;4994242;28;20473;-63
2021/08/03 12:03:35;;;;;;;1.10;1.10;;;21.10;99.90;;;;;;4993327;28;20467;-65
2021/08/03 12:06:02;;;;;;;0.90;0.90;;;21.30;99.90;;;;;;4994000;28;20390;-65
2021/08/03 12:08:37;;;;;;;1.00;1.00;;;21.50;99.90;;;;;;4993333;28;20758;-63
2021/08/03 12:11:03;;;;;;;0.97;0.97;;;21.70;99.90;;;;;;5002902;28;20419;-64
2021/08/03 12:13:32;;;;;;;1.77;1.43;;;21.70;99.90;;;;;;5033309;28;20723;-63
2021/08/03 12:16:00;;;;;;;1.50;1.33;;;21.80;99.90;;;;;;5033198;28;20379;-65
2021/08/03 12:18:43;;;;;;;0.90;0.90;;;21.90;99.90;;;;;;5032655;28;20449;-63
2021/08/03 12:21:10;;;;;;;1.60;1.30;;;22.10;99.90;;;;;;5033317;28;20487;-64
2021/08/03 12:23:41;;;;;;;1.30;1.30;;;22.10;99.90;;;;;;5033142;28;20404;-63
2021/08/03 12:26:14;;;;;;;1.20;1.13;;;22.20;99.90;;;;;;5025763;28;20409;-65
2021/08/03 12:28:43;;;;;;;1.17;1.07;;;22.30;99.90;;;;;;5012840;28;20558;-65
2021/08/03 12:31:30;;;;;;;1.60;1.50;;;22.30;99.90;;;;;;5011888;28;20502;-66
2021/08/03 12:34:09;;;;;;;0.90;0.90;;;22.40;99.90;;;;;;5013588;28;20925;-63
2021/08/03 12:36:45;;;;;;;1.27;1.27;;;22.40;99.90;;;;;;5012761;28;20936;-66
2021/08/03 12:39:20;;;;;;;0.93;0.93;;;22.40;99.90;;;;;;5012980;28;20407;-64
2021/08/03 12:42:05;;;;;;;2.00;1.90;;;22.40;99.90;;;;;;5027203;28;20482;-64
2021/08/03 12:44:34;;;;;;;1.80;1.70;;;22.50;99.90;;;;;;5032634;28;20416;-66
2021/08/03 12:47:35;;;;;;;23.20;17.90;;;22.40;99.90;;;;;;5032545;28;20730;-64
2021/08/03 12:50:05;;;;;;;0.97;0.97;;;22.20;99.90;;;;;;5030688;28;21020;-64
2021/08/03 12:52:30;;;;;;;1.00;0.90;;;22.10;99.90;;;;;;5032502;28;20449;-66
2021/08/03 12:55:09;;;;;;;1.40;1.30;;;22.10;99.90;;;;;;5029973;28;20503;-64
2021/08/03 12:57:49;;;;;;;1.60;1.40;;;22.10;99.90;;;;;;5012749;28;20209;-63
2021/08/03 13:00:38;;;;;;;1.77;0.93;;;22.10;99.90;;;;;;5012929;28;20774;-63